首页
METAR-TAF:

METAR-TAF

机场 :

贝鲁特, 黎巴嫩

纬度: 33-49N, 经度: 035-29E, 海拔: 29米

当前天气观测

该预报发布于54分钟前的18:00 UTC
风速3节,风向东转东南
温度 14°C
湿度 51%
气压 1014 hPa
能見度: 8000
天空无云

METAR: OLBA 231800Z 11003KT 8000 SKC 14/04 Q1014 NOSIG

时间: 20:54 (18:54 UTC)

预报

该预报发布于8小时和54分钟前的10:00 UTC
预报有效从23日的 12点(UTC)到 24日的 18点(UTC)
风速8节,风向东转东北
能见度10公里或以上
1500米以下无云,无积雨云
成为
从 23日的 18点(UTC)到 23日的 21点(UTC)
风速15节,风向东南
成为
从 24日的 06点(UTC)到 24日的 09点(UTC)
风速13节,风向,有时为25节阵风
能見度: 7000
多云层高于12000英尺
短暂存在
从 24日的 06点(UTC)到 24日的 18点(UTC)
能見度: 4000

TAF: OLBA 231000Z 2312/2418 06008KT CAVOK BECMG 2318/2321 14015KT BECMG 2406/2409 18013G25KT 7000 BKN120 TEMPO 2406/2418 4000 HZ

超过4000个机场的气象观测和天气预报(METAR&TAF报告)。

可查询的气象台以黄色和红色小点在地图上表示。

将鼠标移到小点上方,可查看气象台名称。

然后点击查看天气观测和预报。

如需切换地图:点击带黑十字的绿色按钮放大地图;点击带横线的绿色按钮缩小地图;或者点击绿色箭头查看邻近地区的地图。


METAR-TAF: